createdAt,value
2022-09-07T00:00:23.403Z,17.48
2022-09-07T00:02:50.135Z,15.93
2022-09-07T00:05:16.918Z,16.52
2022-09-07T00:07:43.571Z,15.57
2022-09-07T00:10:10.339Z,18.85
2022-09-07T00:12:37.097Z,20.58
2022-09-07T00:15:08.293Z,14.60
2022-09-07T00:17:35.604Z,17.63
2022-09-07T00:20:03.900Z,16.67
2022-09-07T00:22:30.915Z,24.35
2022-09-07T00:24:57.636Z,19.10
2022-09-07T00:27:24.395Z,20.52
2022-09-07T00:29:51.066Z,17.88
2022-09-07T00:32:17.736Z,16.05
2022-09-07T00:34:44.545Z,18.58
2022-09-07T00:37:11.211Z,17.95
2022-09-07T00:39:37.933Z,19.95
2022-09-07T00:42:04.960Z,19.17
2022-09-07T00:45:02.129Z,21.25
2022-09-07T00:52:28.288Z,18.05
2022-09-07T00:54:59.241Z,20.67
2022-09-07T00:57:28.216Z,15.52
2022-09-07T00:59:57.534Z,16.38
2022-09-07T01:02:25.950Z,19.38
2022-09-07T01:05:02.918Z,16.23
2022-09-07T01:07:31.195Z,17.60
2022-09-07T01:09:58.203Z,16.48
2022-09-07T01:12:24.953Z,16.85
2022-09-07T01:14:53.002Z,14.82
2022-09-07T01:17:51.819Z,15.00
2022-09-07T01:20:19.541Z,16.88
2022-09-07T01:23:16.625Z,20.27
2022-09-07T01:25:58.644Z,15.20
2022-09-07T01:28:32.436Z,15.48
2022-09-07T01:31:19.523Z,14.48
2022-09-07T01:34:10.028Z,20.40
2022-09-07T01:36:50.568Z,25.60
2022-09-07T01:39:19.452Z,18.25
2022-09-07T01:41:58.833Z,19.58
2022-09-07T01:44:34.906Z,21.33
2022-09-07T01:47:08.362Z,18.13
2022-09-07T01:49:45.247Z,20.08
2022-09-07T01:52:36.646Z,17.70
2022-09-07T01:55:16.430Z,19.90
2022-09-07T01:57:52.547Z,20.00
2022-09-07T02:00:23.162Z,17.05
2022-09-07T02:02:55.640Z,22.45
2022-09-07T02:05:31.672Z,21.90
2022-09-07T02:08:09.652Z,19.27
2022-09-07T02:10:42.804Z,23.45
2022-09-07T02:13:14.140Z,18.50
2022-09-07T02:15:49.279Z,21.35
2022-09-07T02:18:16.065Z,26.70
2022-09-07T02:20:48.985Z,23.17
2022-09-07T02:23:26.047Z,23.88
2022-09-07T02:26:00.918Z,19.23
2022-09-07T02:28:32.875Z,23.65
2022-09-07T02:31:00.908Z,31.02
2022-09-07T02:33:28.654Z,18.15
2022-09-07T02:35:55.741Z,23.90
2022-09-07T02:38:22.953Z,22.10
2022-09-07T02:40:52.364Z,22.67
2022-09-07T02:43:20.846Z,25.48
2022-09-07T02:46:22.677Z,23.80
2022-09-07T02:49:09.187Z,25.83
2022-09-07T02:52:04.777Z,29.25
2022-09-07T02:54:46.694Z,24.35
2022-09-07T02:57:43.883Z,24.10
2022-09-07T03:02:55.470Z,20.30
2022-09-07T03:05:28.765Z,26.20
2022-09-07T03:08:02.635Z,24.05
2022-09-07T03:10:30.200Z,27.63
2022-09-07T03:12:56.965Z,27.48
2022-09-07T03:15:26.182Z,30.48
2022-09-07T03:17:53.686Z,27.60
2022-09-07T03:20:21.780Z,30.70
2022-09-07T03:22:50.655Z,26.85
2022-09-07T03:25:18.843Z,23.90
2022-09-07T03:27:45.488Z,28.65
2022-09-07T03:30:13.340Z,30.50
2022-09-07T03:32:40.327Z,27.08
2022-09-07T03:35:08.163Z,24.35
2022-09-07T03:37:36.895Z,29.77
2022-09-07T03:40:05.785Z,27.08
2022-09-07T03:42:32.644Z,26.67
2022-09-07T03:44:59.264Z,26.75
2022-09-07T03:47:25.962Z,32.97
2022-09-07T03:49:52.731Z,25.42
2022-09-07T03:52:19.406Z,30.33
2022-09-07T03:54:46.370Z,25.02
2022-09-07T03:57:13.434Z,25.67
2022-09-07T03:59:40.087Z,28.15
2022-09-07T04:02:06.915Z,22.05
2022-09-07T04:04:33.996Z,23.20
2022-09-07T04:07:00.721Z,29.67
2022-09-07T04:09:27.460Z,28.33
2022-09-07T04:11:54.131Z,29.10
2022-09-07T04:14:20.872Z,31.08
2022-09-07T04:16:47.674Z,30.15
2022-09-07T04:19:14.892Z,27.27
2022-09-07T04:21:44.306Z,44.20
2022-09-07T04:24:10.953Z,34.33
2022-09-07T04:26:38.033Z,47.17
2022-09-07T04:29:06.106Z,43.30
2022-09-07T04:31:35.499Z,41.35
2022-09-07T04:34:02.737Z,38.03
2022-09-07T04:36:29.625Z,38.10
2022-09-07T04:38:59.506Z,35.35
2022-09-07T04:41:27.187Z,47.85
2022-09-07T04:43:56.159Z,44.53
2022-09-07T04:46:25.311Z,43.80
2022-09-07T04:48:55.079Z,45.60
2022-09-07T04:51:24.225Z,46.95
2022-09-07T04:53:53.289Z,39.35
2022-09-07T04:56:21.280Z,41.78
2022-09-07T04:58:48.405Z,36.95
2022-09-07T05:01:18.138Z,41.28
2022-09-07T05:03:45.634Z,40.03
2022-09-07T05:06:12.767Z,41.22
2022-09-07T05:08:43.623Z,40.70
2022-09-07T05:11:11.575Z,38.97
2022-09-07T05:13:38.342Z,36.78
2022-09-07T05:16:10.442Z,35.08
2022-09-07T05:18:37.823Z,42.25
2022-09-07T05:21:08.602Z,38.08
2022-09-07T05:23:35.823Z,38.72
2022-09-07T05:26:04.705Z,38.90
2022-09-07T05:28:32.278Z,37.72
2022-09-07T05:31:17.453Z,42.65
2022-09-07T05:36:33.803Z,34.75
2022-09-07T05:39:00.446Z,34.55
2022-09-07T05:41:28.099Z,39.00
2022-09-07T05:46:42.064Z,29.63
2022-09-07T05:49:08.902Z,39.70
2022-09-07T05:51:37.085Z,37.22
2022-09-07T05:54:04.248Z,29.48
2022-09-07T05:56:34.431Z,33.72
2022-09-07T05:59:01.087Z,35.72
2022-09-07T06:01:31.769Z,45.25
2022-09-07T06:03:58.843Z,40.33
2022-09-07T06:06:28.808Z,42.28
2022-09-07T06:08:57.617Z,39.15
2022-09-07T06:11:27.028Z,39.88
2022-09-07T06:13:53.711Z,33.08
2022-09-07T06:16:20.891Z,37.33
2022-09-07T06:18:49.543Z,31.77
2022-09-07T06:21:19.807Z,36.83
2022-09-07T06:23:48.395Z,29.88
2022-09-07T06:26:16.632Z,30.73
2022-09-07T06:28:49.150Z,32.65
2022-09-07T06:31:20.494Z,29.63
2022-09-07T06:33:48.240Z,28.05
2022-09-07T06:36:17.567Z,34.50
2022-09-07T06:38:45.183Z,27.58
2022-09-07T06:43:59.410Z,33.63
2022-09-07T06:49:12.839Z,27.25
2022-09-07T06:51:39.528Z,25.52
2022-09-07T07:01:46.188Z,27.95
2022-09-07T07:04:13.344Z,27.42
2022-09-07T07:06:40.294Z,25.10
2022-09-07T07:09:08.925Z,25.73
2022-09-07T07:11:37.227Z,23.85
2022-09-07T07:14:04.426Z,25.80
2022-09-07T07:16:31.174Z,22.55
2022-09-07T07:18:58.031Z,23.75
2022-09-07T07:21:24.892Z,21.40
2022-09-07T07:23:53.137Z,25.30
2022-09-07T07:26:23.725Z,22.50
2022-09-07T07:31:26.995Z,27.40
2022-09-07T07:33:54.332Z,26.25
2022-09-07T07:36:24.264Z,28.27
2022-09-07T07:39:02.074Z,22.42
2022-09-07T07:44:18.751Z,20.67
2022-09-07T07:46:49.168Z,21.05
2022-09-07T07:49:16.070Z,20.50
2022-09-07T07:54:29.510Z,21.83
2022-09-07T07:56:56.135Z,26.70
2022-09-07T07:59:22.876Z,23.13
2022-09-07T08:01:51.930Z,19.25
2022-09-07T08:04:18.792Z,21.88
2022-09-07T08:06:45.422Z,24.38
2022-09-07T08:09:12.098Z,21.10
2022-09-07T08:11:40.274Z,23.05
2022-09-07T08:14:09.828Z,20.38
2022-09-07T08:16:37.719Z,21.33
2022-09-07T08:19:05.678Z,23.67
2022-09-07T08:21:32.277Z,22.65
2022-09-07T08:23:59.902Z,18.55
2022-09-07T08:26:27.284Z,20.63
2022-09-07T08:28:54.016Z,22.58
2022-09-07T08:31:20.885Z,23.88
2022-09-07T08:33:47.447Z,17.83
2022-09-07T08:36:17.786Z,17.40
2022-09-07T08:38:45.021Z,21.65
2022-09-07T08:41:27.492Z,19.52
2022-09-07T08:44:01.026Z,20.92
2022-09-07T08:46:31.383Z,20.95
2022-09-07T08:49:01.119Z,21.73
2022-09-07T08:51:46.440Z,18.60
2022-09-07T08:54:16.726Z,18.58
2022-09-07T08:59:55.449Z,14.45
2022-09-07T09:02:32.616Z,18.98
2022-09-07T09:05:18.872Z,21.27
2022-09-07T09:08:05.622Z,16.67
2022-09-07T09:13:15.929Z,17.58
2022-09-07T09:15:44.636Z,16.38
2022-09-07T09:18:21.934Z,15.95
2022-09-07T09:20:53.471Z,13.77
2022-09-07T09:23:24.699Z,22.85
2022-09-07T09:25:54.175Z,17.67
2022-09-07T09:28:21.362Z,15.75
2022-09-07T09:30:48.343Z,17.75
2022-09-07T09:33:19.724Z,20.13
2022-09-07T09:35:50.041Z,17.95
2022-09-07T09:38:34.810Z,18.58
2022-09-07T09:41:09.872Z,22.70
2022-09-07T09:43:51.763Z,18.10
2022-09-07T09:46:33.531Z,18.25
2022-09-07T09:49:13.907Z,13.90
2022-09-07T09:54:37.271Z,21.27
2022-09-07T09:57:04.050Z,15.00
2022-09-07T10:05:36.286Z,16.15
2022-09-07T10:08:17.663Z,17.23
2022-09-07T10:10:54.396Z,19.30
2022-09-07T10:13:23.483Z,15.88
2022-09-07T10:15:52.200Z,26.17
2022-09-07T10:18:28.007Z,13.20
2022-09-07T10:21:13.131Z,20.38
2022-09-07T10:23:40.374Z,14.05
2022-09-07T10:26:22.460Z,17.88
2022-09-07T10:31:42.472Z,15.20
2022-09-07T10:34:31.029Z,12.75
2022-09-07T10:37:05.534Z,14.93
2022-09-07T10:39:37.157Z,14.98
2022-09-07T10:42:26.344Z,15.20
2022-09-07T10:45:01.180Z,14.70
2022-09-07T10:47:52.319Z,16.60
2022-09-07T10:50:23.154Z,13.15
2022-09-07T10:53:40.116Z,10.52
2022-09-07T10:56:10.455Z,10.98
2022-09-07T10:59:02.343Z,14.55
2022-09-07T11:02:00.170Z,13.63
2022-09-07T11:04:51.466Z,11.43
2022-09-07T11:07:20.216Z,14.73
2022-09-07T11:09:56.302Z,15.40
2022-09-07T11:12:30.862Z,11.10
2022-09-07T11:15:18.703Z,11.98
2022-09-07T11:17:53.290Z,13.27
2022-09-07T11:20:34.183Z,12.15
2022-09-07T11:23:21.566Z,13.13
2022-09-07T11:26:19.182Z,13.32
2022-09-07T11:31:57.569Z,14.75
2022-09-07T11:34:41.088Z,10.55
2022-09-07T11:37:19.976Z,11.57
2022-09-07T11:39:53.682Z,9.27
2022-09-07T11:42:43.495Z,10.88
2022-09-07T11:45:28.770Z,9.32
2022-09-07T11:48:04.018Z,10.30
2022-09-07T11:50:35.419Z,11.38
2022-09-07T11:53:07.767Z,13.88
2022-09-07T11:55:39.544Z,9.38
2022-09-07T11:58:36.590Z,6.80
2022-09-07T12:01:33.665Z,10.88
2022-09-07T12:04:40.164Z,14.13
2022-09-07T12:07:15.128Z,8.60
2022-09-07T12:10:08.248Z,11.30
2022-09-07T12:13:05.445Z,17.88
2022-09-07T12:15:47.637Z,13.13
2022-09-07T12:18:21.761Z,9.32
2022-09-07T12:20:49.016Z,12.00
2022-09-07T12:23:15.578Z,13.65
2022-09-07T12:25:44.368Z,8.38
2022-09-07T12:28:50.791Z,16.40
2022-09-07T12:31:57.599Z,12.15
2022-09-07T12:34:33.614Z,8.55
2022-09-07T12:37:03.688Z,8.98
2022-09-07T12:39:33.036Z,11.18
2022-09-07T12:42:37.826Z,6.57
2022-09-07T12:45:44.269Z,12.15
2022-09-07T12:48:30.768Z,7.90
2022-09-07T12:51:59.367Z,12.02
2022-09-07T12:54:04.252Z,9.50
2022-09-07T12:59:56.435Z,9.75
2022-09-07T13:02:48.874Z,10.68
2022-09-07T13:05:28.744Z,11.88
2022-09-07T13:08:25.973Z,11.98
2022-09-07T13:10:52.731Z,11.48
2022-09-07T13:16:13.907Z,11.07
2022-09-07T13:18:43.762Z,12.40
2022-09-07T13:21:11.886Z,7.03
2022-09-07T13:23:40.340Z,9.32
2022-09-07T13:26:10.905Z,8.57
2022-09-07T13:28:40.481Z,8.98
2022-09-07T13:31:42.490Z,13.00
2022-09-07T13:34:39.584Z,10.65
2022-09-07T13:37:15.007Z,9.85
2022-09-07T13:39:45.809Z,12.68
2022-09-07T13:42:19.619Z,13.70
2022-09-07T13:44:56.298Z,8.32
2022-09-07T13:47:48.487Z,10.93
2022-09-07T13:50:34.269Z,8.82
2022-09-07T13:53:00.754Z,7.53
2022-09-07T13:55:45.597Z,12.45
2022-09-07T13:58:18.021Z,9.93
2022-09-07T14:00:55.478Z,11.02
2022-09-07T14:03:28.151Z,10.95
2022-09-07T14:06:14.667Z,9.75
2022-09-07T14:08:49.534Z,11.25
2022-09-07T14:11:27.673Z,13.18
2022-09-07T14:14:12.647Z,11.77
2022-09-07T14:16:42.532Z,9.20
2022-09-07T14:19:18.315Z,8.05
2022-09-07T14:24:29.538Z,7.95
2022-09-07T14:26:56.574Z,8.63
2022-09-07T14:29:26.672Z,9.63
2022-09-07T14:31:54.394Z,8.18
2022-09-07T14:34:24.752Z,7.15
2022-09-07T14:36:52.457Z,12.60
2022-09-07T14:39:22.280Z,10.38
2022-09-07T14:41:49.910Z,9.18
2022-09-07T14:44:34.067Z,14.10
2022-09-07T14:47:06.091Z,9.52
2022-09-07T14:49:33.329Z,10.88
2022-09-07T14:52:00.797Z,9.98
2022-09-07T14:54:31.702Z,12.85
2022-09-07T14:57:25.722Z,10.35
2022-09-07T14:59:53.813Z,12.15
2022-09-07T15:02:23.398Z,12.18
2022-09-07T15:05:18.944Z,10.10
2022-09-07T15:07:48.413Z,9.40
2022-09-07T15:10:28.939Z,16.80
2022-09-07T15:12:58.476Z,6.95
2022-09-07T15:15:27.622Z,9.57
2022-09-07T15:18:00.825Z,9.52
2022-09-07T15:20:35.295Z,11.35
2022-09-07T15:23:04.815Z,11.80
2022-09-07T15:25:32.870Z,8.80
2022-09-07T15:28:00.256Z,15.10
2022-09-07T15:30:27.423Z,8.83
2022-09-07T15:32:56.881Z,9.05
2022-09-07T15:35:23.923Z,19.05
2022-09-07T15:38:58.914Z,18.80
2022-09-07T15:41:03.847Z,10.95
2022-09-07T15:43:29.770Z,10.00
2022-09-07T15:45:56.477Z,9.60
2022-09-07T15:48:25.334Z,9.15
2022-09-07T15:51:02.522Z,17.75
2022-09-07T15:56:17.287Z,14.52
2022-09-07T15:58:46.586Z,13.00
2022-09-07T16:04:00.541Z,13.30
2022-09-07T16:06:27.279Z,9.95
2022-09-07T16:08:54.700Z,11.30
2022-09-07T16:11:24.276Z,10.43
2022-09-07T16:14:06.344Z,12.73
2022-09-07T16:19:28.031Z,9.48
2022-09-07T16:21:57.469Z,11.45
2022-09-07T16:24:24.389Z,15.45
2022-09-07T16:26:50.990Z,12.38
2022-09-07T16:29:17.903Z,11.18
2022-09-07T16:34:31.390Z,10.38
2022-09-07T16:36:58.084Z,11.10
2022-09-07T16:39:24.691Z,13.40
2022-09-07T16:41:51.383Z,12.25
2022-09-07T16:44:18.964Z,8.70
2022-09-07T16:46:45.498Z,12.32
2022-09-07T16:49:12.650Z,18.02
2022-09-07T16:51:40.133Z,13.18
2022-09-07T16:54:06.924Z,12.65
2022-09-07T16:56:38.313Z,13.20
2022-09-07T16:59:07.092Z,13.15
2022-09-07T17:01:37.987Z,10.15
2022-09-07T17:04:09.802Z,16.10
2022-09-07T17:06:37.268Z,18.75
2022-09-07T17:09:04.327Z,9.65
2022-09-07T17:11:33.343Z,12.88
2022-09-07T17:14:00.362Z,10.90
2022-09-07T17:16:32.081Z,11.38
2022-09-07T17:21:51.823Z,9.52
2022-09-07T17:24:19.715Z,11.43
2022-09-07T17:26:46.604Z,13.70
2022-09-07T17:29:13.512Z,15.02
2022-09-07T17:34:29.036Z,12.02
2022-09-07T17:36:55.735Z,12.75
2022-09-07T17:39:22.348Z,12.82
2022-09-07T17:41:52.666Z,16.67
2022-09-07T17:44:20.095Z,23.58
2022-09-07T17:46:46.699Z,17.33
2022-09-07T17:49:16.366Z,17.33
2022-09-07T17:51:44.247Z,17.45
2022-09-07T17:54:14.430Z,17.00
2022-09-07T17:56:41.804Z,13.65
2022-09-07T18:01:56.192Z,16.33
2022-09-07T18:04:26.261Z,29.73
2022-09-07T18:06:54.185Z,17.15
2022-09-07T18:09:24.252Z,24.15
2022-09-07T18:11:51.184Z,17.98
2022-09-07T18:14:19.006Z,15.50
2022-09-07T18:16:47.914Z,16.17
2022-09-07T18:19:15.827Z,12.18
2022-09-07T18:21:43.657Z,17.80
2022-09-07T18:24:16.929Z,19.33
2022-09-07T18:26:49.672Z,13.68
2022-09-07T18:29:28.786Z,15.75
2022-09-07T18:31:56.790Z,16.23
2022-09-07T18:34:24.040Z,17.58
2022-09-07T18:36:50.721Z,16.00
2022-09-07T18:39:17.684Z,19.00
2022-09-07T18:41:44.354Z,12.73
2022-09-07T18:47:00.663Z,18.90
2022-09-07T18:49:27.476Z,12.20
2022-09-07T18:54:41.924Z,16.88
2022-09-07T18:57:08.771Z,11.43
2022-09-07T18:59:35.615Z,10.80
2022-09-07T19:02:05.030Z,13.40
2022-09-07T19:07:21.545Z,12.15
2022-09-07T19:09:49.759Z,9.60
2022-09-07T19:12:16.419Z,13.27
2022-09-07T19:14:43.064Z,10.25
2022-09-07T19:17:11.841Z,12.02
2022-09-07T19:19:39.998Z,9.85
2022-09-07T19:22:06.574Z,15.07
2022-09-07T19:24:33.410Z,10.45
2022-09-07T19:27:01.131Z,13.35
2022-09-07T19:29:28.173Z,17.92
2022-09-07T19:32:11.304Z,13.10
2022-09-07T19:34:40.892Z,12.48
2022-09-07T19:37:10.134Z,12.80
2022-09-07T19:39:37.186Z,10.88
2022-09-07T19:42:05.315Z,7.18
2022-09-07T19:44:32.935Z,14.10
2022-09-07T19:47:00.448Z,10.27
2022-09-07T19:49:27.748Z,11.45
2022-09-07T19:51:54.663Z,8.77
2022-09-07T19:54:21.443Z,18.42
2022-09-07T19:56:48.291Z,9.05
2022-09-07T19:59:14.999Z,9.80
2022-09-07T20:01:46.055Z,11.25
2022-09-07T20:04:19.642Z,9.20
2022-09-07T20:06:49.791Z,11.40
2022-09-07T20:09:18.690Z,9.30
2022-09-07T20:11:47.502Z,10.82
2022-09-07T20:14:16.251Z,9.25
2022-09-07T20:16:43.793Z,9.38
2022-09-07T20:19:12.056Z,10.40
2022-09-07T20:21:38.627Z,11.45
2022-09-07T20:24:05.774Z,8.05
2022-09-07T20:26:32.741Z,12.23
2022-09-07T20:29:23.369Z,8.05
2022-09-07T20:31:47.239Z,10.48
2022-09-07T20:34:14.381Z,9.68
2022-09-07T20:36:41.260Z,8.82
2022-09-07T20:39:07.887Z,8.95
2022-09-07T20:41:34.725Z,9.98
2022-09-07T20:44:03.559Z,7.93
2022-09-07T20:46:31.224Z,11.20
2022-09-07T20:48:58.566Z,8.73
2022-09-07T20:51:25.818Z,14.38
2022-09-07T20:53:52.931Z,8.52
2022-09-07T20:56:22.342Z,8.20
2022-09-07T20:58:53.603Z,9.52
2022-09-07T21:01:21.269Z,9.40
2022-09-07T21:03:51.741Z,11.25
2022-09-07T21:06:19.409Z,11.90
2022-09-07T21:08:47.227Z,8.50
2022-09-07T21:11:19.921Z,8.80
2022-09-07T21:13:47.052Z,12.32
2022-09-07T21:16:16.457Z,10.45
2022-09-07T21:18:44.461Z,10.43
2022-09-07T21:21:20.361Z,11.15
2022-09-07T21:23:48.061Z,11.20
2022-09-07T21:26:15.216Z,12.38
2022-09-07T21:28:42.348Z,8.77
2022-09-07T21:31:09.556Z,9.32
2022-09-07T21:33:37.685Z,10.73
2022-09-07T21:36:08.085Z,8.68
2022-09-07T21:38:36.734Z,12.75
2022-09-07T21:41:13.866Z,9.57
2022-09-07T21:43:41.208Z,10.50
2022-09-07T21:46:12.367Z,10.23
2022-09-07T21:48:39.300Z,7.65
2022-09-07T21:51:06.754Z,9.85
2022-09-07T21:53:34.141Z,12.43
2022-09-07T21:56:05.097Z,20.25
2022-09-07T21:58:32.682Z,10.65
2022-09-07T22:01:08.253Z,9.40
2022-09-07T22:03:35.058Z,8.85
2022-09-07T22:06:05.117Z,13.00
2022-09-07T22:08:31.731Z,10.77
2022-09-07T22:11:18.481Z,9.80
2022-09-07T22:13:45.755Z,11.30
2022-09-07T22:16:13.347Z,10.23
2022-09-07T22:18:43.795Z,10.75
2022-09-07T22:21:13.455Z,12.27
2022-09-07T22:23:45.174Z,13.35
2022-09-07T22:26:13.647Z,11.75
2022-09-07T22:28:40.898Z,11.32
2022-09-07T22:31:10.331Z,11.85
2022-09-07T22:33:37.446Z,9.32
2022-09-07T22:36:17.448Z,9.65
2022-09-07T22:38:46.025Z,12.20
2022-09-07T22:41:15.554Z,8.25
2022-09-07T22:43:42.885Z,10.50
2022-09-07T22:46:10.459Z,10.75
2022-09-07T22:48:37.766Z,9.52
2022-09-07T22:51:05.318Z,10.85
2022-09-07T22:53:35.680Z,16.25
2022-09-07T22:56:08.191Z,12.68
2022-09-07T22:58:35.176Z,8.70
2022-09-07T23:01:02.061Z,12.48
2022-09-07T23:03:29.611Z,10.18
2022-09-07T23:05:57.084Z,8.05
2022-09-07T23:08:25.327Z,10.70
2022-09-07T23:10:52.966Z,11.63
2022-09-07T23:13:20.152Z,16.77
2022-09-07T23:15:47.556Z,13.68
2022-09-07T23:18:15.112Z,12.73
2022-09-07T23:20:42.119Z,9.77
2022-09-07T23:23:09.224Z,10.25
2022-09-07T23:25:38.283Z,15.18
2022-09-07T23:28:06.278Z,11.50
2022-09-07T23:30:35.466Z,10.20
2022-09-07T23:33:02.998Z,10.85
2022-09-07T23:35:30.138Z,13.52
2022-09-07T23:37:57.068Z,9.55
2022-09-07T23:40:24.121Z,10.77
2022-09-07T23:42:50.746Z,11.07
2022-09-07T23:45:17.494Z,13.45
2022-09-07T23:47:44.064Z,12.25
2022-09-07T23:50:11.116Z,12.48
2022-09-07T23:52:37.970Z,11.15
2022-09-07T23:55:05.403Z,11.50
2022-09-07T23:57:34.351Z,9.48
